sensor_id;sensor_type;location;lat;lon;timestamp;pressure;altitude;pressure_sealevel;temperature;humidity
20889;BME280;10604;51.976;7.594;2023-04-23T00:00:00;100056.06;;;14.99;77.21
20889;BME280;10604;51.976;7.594;2023-04-23T00:02:25;100053.81;;;15.07;76.82
20889;BME280;10604;51.976;7.594;2023-04-23T00:04:51;100055.69;;;14.91;76.43
20889;BME280;10604;51.976;7.594;2023-04-23T00:07:19;100054.03;;;15.18;76.40
20889;BME280;10604;51.976;7.594;2023-04-23T00:09:45;100047.38;;;15.11;75.97
20889;BME280;10604;51.976;7.594;2023-04-23T00:12:11;100048.03;;;15.15;75.44
20889;BME280;10604;51.976;7.594;2023-04-23T00:14:36;100046.41;;;14.98;75.33
20889;BME280;10604;51.976;7.594;2023-04-23T00:17:02;100033.25;;;14.81;76.93
20889;BME280;10604;51.976;7.594;2023-04-23T00:19:28;100044.34;;;15.03;75.99
20889;BME280;10604;51.976;7.594;2023-04-23T00:21:53;100035.97;;;14.95;75.95
20889;BME280;10604;51.976;7.594;2023-04-23T00:24:18;100039.75;;;14.91;76.19
20889;BME280;10604;51.976;7.594;2023-04-23T00:26:44;100040.88;;;14.87;76.69
20889;BME280;10604;51.976;7.594;2023-04-23T00:29:09;100044.97;;;14.63;76.37
20889;BME280;10604;51.976;7.594;2023-04-23T00:31:34;100045.41;;;14.85;75.52
20889;BME280;10604;51.976;7.594;2023-04-23T00:33:59;100046.94;;;14.89;75.76
20889;BME280;10604;51.976;7.594;2023-04-23T00:36:25;100049.25;;;14.95;76.09
20889;BME280;10604;51.976;7.594;2023-04-23T00:38:50;100036.69;;;14.83;76.11
20889;BME280;10604;51.976;7.594;2023-04-23T00:41:15;100042.16;;;14.80;76.09
20889;BME280;10604;51.976;7.594;2023-04-23T00:43:41;100040.28;;;14.82;76.10
20889;BME280;10604;51.976;7.594;2023-04-23T00:46:07;100047.31;;;14.83;76.55
20889;BME280;10604;51.976;7.594;2023-04-23T00:48:33;100044.16;;;14.76;76.92
20889;BME280;10604;51.976;7.594;2023-04-23T00:50:58;100039.38;;;14.67;76.87
20889;BME280;10604;51.976;7.594;2023-04-23T00:53:25;100036.00;;;14.79;76.76
20889;BME280;10604;51.976;7.594;2023-04-23T00:55:50;100030.56;;;14.67;77.63
20889;BME280;10604;51.976;7.594;2023-04-23T00:58:15;100038.25;;;14.71;77.17
20889;BME280;10604;51.976;7.594;2023-04-23T01:00:42;100038.94;;;14.75;76.70
20889;BME280;10604;51.976;7.594;2023-04-23T01:03:10;100031.19;;;14.86;76.88
20889;BME280;10604;51.976;7.594;2023-04-23T01:05:37;100037.19;;;14.89;76.98
20889;BME280;10604;51.976;7.594;2023-04-23T01:08:02;100039.75;;;14.91;76.64
20889;BME280;10604;51.976;7.594;2023-04-23T01:10:28;100032.72;;;14.90;76.78
20889;BME280;10604;51.976;7.594;2023-04-23T01:12:56;100030.19;;;14.73;77.14
20889;BME280;10604;51.976;7.594;2023-04-23T01:15:22;100031.31;;;14.39;77.81
20889;BME280;10604;51.976;7.594;2023-04-23T01:17:48;100031.97;;;14.42;77.70
20889;BME280;10604;51.976;7.594;2023-04-23T01:20:13;100031.44;;;14.36;78.96
20889;BME280;10604;51.976;7.594;2023-04-23T01:22:38;100028.03;;;14.34;79.45
20889;BME280;10604;51.976;7.594;2023-04-23T01:25:04;100043.44;;;14.27;79.04
20889;BME280;10604;51.976;7.594;2023-04-23T01:27:29;100047.72;;;14.45;78.65
20889;BME280;10604;51.976;7.594;2023-04-23T01:29:56;100044.63;;;14.37;78.94
20889;BME280;10604;51.976;7.594;2023-04-23T01:32:21;100046.84;;;14.29;79.65
20889;BME280;10604;51.976;7.594;2023-04-23T01:34:47;100047.16;;;14.40;79.02
20889;BME280;10604;51.976;7.594;2023-04-23T01:37:12;100053.88;;;14.46;78.87
20889;BME280;10604;51.976;7.594;2023-04-23T01:39:38;100048.56;;;14.15;79.54
20889;BME280;10604;51.976;7.594;2023-04-23T01:42:03;100048.25;;;14.05;79.89
20889;BME280;10604;51.976;7.594;2023-04-23T01:44:31;100040.72;;;14.13;79.46
20889;BME280;10604;51.976;7.594;2023-04-23T01:46:56;100046.34;;;14.07;79.57
20889;BME280;10604;51.976;7.594;2023-04-23T01:49:22;100053.63;;;14.19;79.07
20889;BME280;10604;51.976;7.594;2023-04-23T01:51:47;100044.72;;;14.20;78.96
20889;BME280;10604;51.976;7.594;2023-04-23T01:54:12;100056.44;;;14.16;78.40
20889;BME280;10604;51.976;7.594;2023-04-23T01:56:38;100041.88;;;14.23;78.00
20889;BME280;10604;51.976;7.594;2023-04-23T01:59:03;100037.16;;;14.28;77.85
20889;BME280;10604;51.976;7.594;2023-04-23T02:01:41;100031.13;;;14.26;77.77
20889;BME280;10604;51.976;7.594;2023-04-23T02:04:07;100046.50;;;14.35;77.30
20889;BME280;10604;51.976;7.594;2023-04-23T02:06:33;100046.69;;;14.32;77.54
20889;BME280;10604;51.976;7.594;2023-04-23T02:08:58;100044.31;;;14.28;77.55
20889;BME280;10604;51.976;7.594;2023-04-23T02:11:23;100050.44;;;14.28;77.48
20889;BME280;10604;51.976;7.594;2023-04-23T02:13:48;100049.75;;;14.09;77.86
20889;BME280;10604;51.976;7.594;2023-04-23T02:16:14;100053.53;;;14.05;77.99
20889;BME280;10604;51.976;7.594;2023-04-23T02:18:40;100059.69;;;13.90;78.92
20889;BME280;10604;51.976;7.594;2023-04-23T02:21:05;100050.78;;;13.91;78.45
20889;BME280;10604;51.976;7.594;2023-04-23T02:23:30;100043.09;;;14.02;78.45
20889;BME280;10604;51.976;7.594;2023-04-23T02:25:55;100049.53;;;14.14;78.08
20889;BME280;10604;51.976;7.594;2023-04-23T02:28:21;100049.59;;;14.12;78.63
20889;BME280;10604;51.976;7.594;2023-04-23T02:30:46;100053.19;;;14.11;78.64
20889;BME280;10604;51.976;7.594;2023-04-23T02:33:12;100052.84;;;14.01;78.86
20889;BME280;10604;51.976;7.594;2023-04-23T02:35:37;100052.16;;;13.98;78.79
20889;BME280;10604;51.976;7.594;2023-04-23T02:38:02;100048.41;;;14.02;78.93
20889;BME280;10604;51.976;7.594;2023-04-23T02:40:27;100052.94;;;13.84;78.77
20889;BME280;10604;51.976;7.594;2023-04-23T02:42:52;100046.69;;;14.01;78.96
20889;BME280;10604;51.976;7.594;2023-04-23T02:45:18;100047.38;;;14.04;78.35
20889;BME280;10604;51.976;7.594;2023-04-23T02:47:43;100054.16;;;13.61;78.72
20889;BME280;10604;51.976;7.594;2023-04-23T02:50:09;100055.53;;;13.68;78.76
20889;BME280;10604;51.976;7.594;2023-04-23T02:52:34;100049.34;;;13.52;79.19
20889;BME280;10604;51.976;7.594;2023-04-23T02:54:59;100061.78;;;13.35;79.74
20889;BME280;10604;51.976;7.594;2023-04-23T02:57:26;100050.78;;;13.42;79.34
20889;BME280;10604;51.976;7.594;2023-04-23T02:59:51;100048.66;;;13.49;79.12
20889;BME280;10604;51.976;7.594;2023-04-23T03:02:16;100053.84;;;13.50;78.71
20889;BME280;10604;51.976;7.594;2023-04-23T03:04:41;100047.81;;;13.48;78.76
20889;BME280;10604;51.976;7.594;2023-04-23T03:07:07;100045.09;;;13.65;78.20
20889;BME280;10604;51.976;7.594;2023-04-23T03:09:32;100046.69;;;13.52;78.09
20889;BME280;10604;51.976;7.594;2023-04-23T03:11:57;100047.16;;;13.60;78.00
20889;BME280;10604;51.976;7.594;2023-04-23T03:14:23;100048.88;;;13.61;77.81
20889;BME280;10604;51.976;7.594;2023-04-23T03:16:48;100040.13;;;13.59;77.62
20889;BME280;10604;51.976;7.594;2023-04-23T03:19:13;100037.16;;;13.65;77.72
20889;BME280;10604;51.976;7.594;2023-04-23T03:21:39;100040.50;;;13.69;77.37
20889;BME280;10604;51.976;7.594;2023-04-23T03:24:04;100043.22;;;13.67;77.69
20889;BME280;10604;51.976;7.594;2023-04-23T03:26:30;100044.94;;;13.68;77.75
20889;BME280;10604;51.976;7.594;2023-04-23T03:28:55;100042.88;;;13.73;77.89
20889;BME280;10604;51.976;7.594;2023-04-23T03:31:20;100039.66;;;13.68;78.24
20889;BME280;10604;51.976;7.594;2023-04-23T03:33:46;100035.13;;;13.70;78.24
20889;BME280;10604;51.976;7.594;2023-04-23T03:36:11;100032.47;;;13.70;77.98
20889;BME280;10604;51.976;7.594;2023-04-23T03:38:36;100025.97;;;13.76;78.08
20889;BME280;10604;51.976;7.594;2023-04-23T03:41:02;100024.84;;;13.80;77.71
20889;BME280;10604;51.976;7.594;2023-04-23T03:43:28;100011.78;;;13.77;77.86
20889;BME280;10604;51.976;7.594;2023-04-23T03:45:53;100016.03;;;13.80;77.65
20889;BME280;10604;51.976;7.594;2023-04-23T03:48:18;100020.59;;;13.78;77.87
20889;BME280;10604;51.976;7.594;2023-04-23T03:50:44;100021.53;;;13.77;77.93
20889;BME280;10604;51.976;7.594;2023-04-23T03:53:10;100017.72;;;13.49;78.68
20889;BME280;10604;51.976;7.594;2023-04-23T03:55:35;100019.88;;;13.58;78.54
20889;BME280;10604;51.976;7.594;2023-04-23T03:58:01;100012.25;;;13.52;78.94
20889;BME280;10604;51.976;7.594;2023-04-23T04:00:27;100019.94;;;13.41;79.01
20889;BME280;10604;51.976;7.594;2023-04-23T04:02:52;100014.78;;;13.38;79.36
20889;BME280;10604;51.976;7.594;2023-04-23T04:05:17;100007.56;;;13.24;79.47
20889;BME280;10604;51.976;7.594;2023-04-23T04:07:43;100013.59;;;13.28;79.39
20889;BME280;10604;51.976;7.594;2023-04-23T04:10:08;100015.91;;;13.17;79.91
20889;BME280;10604;51.976;7.594;2023-04-23T04:12:33;100013.59;;;13.28;79.38
20889;BME280;10604;51.976;7.594;2023-04-23T04:14:58;100016.09;;;13.14;79.26
20889;BME280;10604;51.976;7.594;2023-04-23T04:17:24;100020.13;;;13.04;79.38
20889;BME280;10604;51.976;7.594;2023-04-23T04:19:49;100021.66;;;13.08;79.20
20889;BME280;10604;51.976;7.594;2023-04-23T04:22:14;100021.91;;;13.03;78.99
20889;BME280;10604;51.976;7.594;2023-04-23T04:24:40;100024.41;;;13.06;79.62
20889;BME280;10604;51.976;7.594;2023-04-23T04:27:05;100020.91;;;13.06;79.15
20889;BME280;10604;51.976;7.594;2023-04-23T04:29:31;100019.50;;;12.99;79.86
20889;BME280;10604;51.976;7.594;2023-04-23T04:31:57;100024.00;;;12.97;80.42
20889;BME280;10604;51.976;7.594;2023-04-23T04:34:22;100017.72;;;12.99;80.19
20889;BME280;10604;51.976;7.594;2023-04-23T04:36:48;100023.53;;;13.06;80.12
20889;BME280;10604;51.976;7.594;2023-04-23T04:39:17;100026.69;;;13.14;80.10
20889;BME280;10604;51.976;7.594;2023-04-23T04:41:44;100023.53;;;13.06;80.63
20889;BME280;10604;51.976;7.594;2023-04-23T04:44:09;100023.22;;;13.12;80.09
20889;BME280;10604;51.976;7.594;2023-04-23T04:46:34;100019.97;;;13.07;80.26
20889;BME280;10604;51.976;7.594;2023-04-23T04:49:07;100026.25;;;13.04;80.84
20889;BME280;10604;51.976;7.594;2023-04-23T04:51:33;100019.78;;;13.10;80.50
20889;BME280;10604;51.976;7.594;2023-04-23T04:53:58;100018.25;;;13.06;80.62
20889;BME280;10604;51.976;7.594;2023-04-23T04:56:23;100016.09;;;13.14;80.31
20889;BME280;10604;51.976;7.594;2023-04-23T04:58:49;100017.94;;;13.12;80.30
20889;BME280;10604;51.976;7.594;2023-04-23T05:01:15;100018.19;;;13.07;80.05
20889;BME280;10604;51.976;7.594;2023-04-23T05:03:40;100023.69;;;13.03;80.35
20889;BME280;10604;51.976;7.594;2023-04-23T05:06:05;100016.34;;;13.08;80.54
20889;BME280;10604;51.976;7.594;2023-04-23T05:08:30;100011.56;;;12.99;80.94
20889;BME280;10604;51.976;7.594;2023-04-23T05:10:56;100010.44;;;13.03;80.71
20889;BME280;10604;51.976;7.594;2023-04-23T05:13:21;100008.13;;;12.97;81.21
20889;BME280;10604;51.976;7.594;2023-04-23T05:15:46;100000.97;;;12.99;81.10
20889;BME280;10604;51.976;7.594;2023-04-23T05:18:12;99995.03;;;13.11;80.72
20889;BME280;10604;51.976;7.594;2023-04-23T05:20:37;100007.19;;;13.15;79.71
20889;BME280;10604;51.976;7.594;2023-04-23T05:23:02;100003.13;;;13.25;80.17
20889;BME280;10604;51.976;7.594;2023-04-23T05:25:28;100004.84;;;13.26;79.78
20889;BME280;10604;51.976;7.594;2023-04-23T05:27:53;100000.81;;;13.19;80.34
20889;BME280;10604;51.976;7.594;2023-04-23T05:30:19;99998.16;;;13.19;80.37
20889;BME280;10604;51.976;7.594;2023-04-23T05:32:44;99994.09;;;13.12;80.60
20889;BME280;10604;51.976;7.594;2023-04-23T05:35:10;100003.59;;;13.16;80.77
20889;BME280;10604;51.976;7.594;2023-04-23T05:37:35;99998.16;;;13.19;80.50
20889;BME280;10604;51.976;7.594;2023-04-23T05:40:00;100003.28;;;13.22;80.64
20889;BME280;10604;51.976;7.594;2023-04-23T05:42:26;100012.34;;;13.18;81.32
20889;BME280;10604;51.976;7.594;2023-04-23T05:44:52;100014.09;;;13.35;81.15
20889;BME280;10604;51.976;7.594;2023-04-23T05:47:17;100007.38;;;13.45;80.48
20889;BME280;10604;51.976;7.594;2023-04-23T05:49:42;100019.13;;;13.56;80.28
20889;BME280;10604;51.976;7.594;2023-04-23T05:52:07;100004.25;;;13.69;80.09
20889;BME280;10604;51.976;7.594;2023-04-23T05:54:33;100009.56;;;13.69;79.86
20889;BME280;10604;51.976;7.594;2023-04-23T05:56:58;100016.56;;;13.70;79.83
20889;BME280;10604;51.976;7.594;2023-04-23T05:59:23;100003.06;;;13.75;80.60
20889;BME280;10604;51.976;7.594;2023-04-23T06:01:49;100004.44;;;13.82;80.11
20889;BME280;10604;51.976;7.594;2023-04-23T06:04:14;100005.53;;;13.94;80.23
20889;BME280;10604;51.976;7.594;2023-04-23T06:06:41;99994.78;;;13.97;79.76
20889;BME280;10604;51.976;7.594;2023-04-23T06:09:06;99996.03;;;14.21;79.93
20889;BME280;10604;51.976;7.594;2023-04-23T06:11:31;99990.56;;;14.24;79.38
20889;BME280;10604;51.976;7.594;2023-04-23T06:13:57;99999.31;;;14.42;79.18
20889;BME280;10604;51.976;7.594;2023-04-23T06:16:23;99998.59;;;14.38;79.15
20889;BME280;10604;51.976;7.594;2023-04-23T06:18:48;100000.44;;;14.36;78.42
20889;BME280;10604;51.976;7.594;2023-04-23T06:21:13;99994.50;;;14.48;78.87
20889;BME280;10604;51.976;7.594;2023-04-23T06:23:39;99992.59;;;14.50;78.57
20889;BME280;10604;51.976;7.594;2023-04-23T06:26:04;99997.56;;;14.71;78.30
20889;BME280;10604;51.976;7.594;2023-04-23T06:28:29;99989.97;;;14.65;78.19
20889;BME280;10604;51.976;7.594;2023-04-23T06:30:55;99985.97;;;14.87;77.74
20889;BME280;10604;51.976;7.594;2023-04-23T06:33:20;99981.16;;;15.08;77.10
20889;BME280;10604;51.976;7.594;2023-04-23T06:35:45;99978.03;;;15.16;76.69
20889;BME280;10604;51.976;7.594;2023-04-23T06:38:11;99981.72;;;15.13;76.40
20889;BME280;10604;51.976;7.594;2023-04-23T06:40:36;99968.44;;;15.27;76.11
20889;BME280;10604;51.976;7.594;2023-04-23T06:43:01;99976.41;;;15.42;76.23
20889;BME280;10604;51.976;7.594;2023-04-23T06:45:29;99971.88;;;15.58;75.59
20889;BME280;10604;51.976;7.594;2023-04-23T06:47:56;99969.66;;;15.79;74.91
20889;BME280;10604;51.976;7.594;2023-04-23T06:50:21;99969.09;;;16.15;74.01
20889;BME280;10604;51.976;7.594;2023-04-23T06:52:46;99968.81;;;16.19;73.19
20889;BME280;10604;51.976;7.594;2023-04-23T06:55:11;99974.19;;;16.32;72.44
20889;BME280;10604;51.976;7.594;2023-04-23T06:57:37;99972.09;;;16.50;71.59
20889;BME280;10604;51.976;7.594;2023-04-23T07:00:02;99970.56;;;16.33;70.65
20889;BME280;10604;51.976;7.594;2023-04-23T07:02:29;99973.66;;;16.66;70.08
20889;BME280;10604;51.976;7.594;2023-04-23T07:04:54;99975.63;;;17.15;69.03
20889;BME280;10604;51.976;7.594;2023-04-23T07:07:20;99967.28;;;17.19;68.52
20889;BME280;10604;51.976;7.594;2023-04-23T07:09:45;99964.19;;;17.51;67.24
20889;BME280;10604;51.976;7.594;2023-04-23T07:12:11;99966.41;;;17.70;66.27
20889;BME280;10604;51.976;7.594;2023-04-23T07:14:36;99962.78;;;18.07;65.96
20889;BME280;10604;51.976;7.594;2023-04-23T07:17:01;99962.81;;;18.42;63.83
20889;BME280;10604;51.976;7.594;2023-04-23T07:19:26;99962.16;;;18.27;62.15
20889;BME280;10604;51.976;7.594;2023-04-23T07:21:52;99945.34;;;18.38;62.92
20889;BME280;10604;51.976;7.594;2023-04-23T07:24:17;99953.06;;;18.54;62.52
20889;BME280;10604;51.976;7.594;2023-04-23T07:26:42;99951.69;;;18.83;62.62
20889;BME280;10604;51.976;7.594;2023-04-23T07:29:08;99941.31;;;19.13;62.36
20889;BME280;10604;51.976;7.594;2023-04-23T07:31:35;99939.91;;;18.74;60.39
20889;BME280;10604;51.976;7.594;2023-04-23T07:34:00;99943.22;;;18.89;61.70
20889;BME280;10604;51.976;7.594;2023-04-23T07:36:26;99942.31;;;18.66;61.40
20889;BME280;10604;51.976;7.594;2023-04-23T07:38:51;99949.88;;;18.49;62.20
20889;BME280;10604;51.976;7.594;2023-04-23T07:41:17;99945.16;;;17.81;61.88
20889;BME280;10604;51.976;7.594;2023-04-23T07:43:42;99946.53;;;17.86;63.06
20889;BME280;10604;51.976;7.594;2023-04-23T07:46:07;99953.56;;;17.87;62.52
20889;BME280;10604;51.976;7.594;2023-04-23T07:48:32;99952.94;;;17.84;63.41
20889;BME280;10604;51.976;7.594;2023-04-23T07:50:59;99950.41;;;17.82;63.31
20889;BME280;10604;51.976;7.594;2023-04-23T07:53:24;99949.88;;;18.01;63.61
20889;BME280;10604;51.976;7.594;2023-04-23T07:55:52;99942.84;;;18.00;64.09
20889;BME280;10604;51.976;7.594;2023-04-23T07:58:17;99944.34;;;18.04;62.81
20889;BME280;10604;51.976;7.594;2023-04-23T08:00:43;99943.34;;;17.81;62.37
20889;BME280;10604;51.976;7.594;2023-04-23T08:03:08;99950.03;;;17.87;64.33
20889;BME280;10604;51.976;7.594;2023-04-23T08:05:33;99944.75;;;17.74;63.35
20889;BME280;10604;51.976;7.594;2023-04-23T08:07:58;99946.38;;;18.24;62.95
20889;BME280;10604;51.976;7.594;2023-04-23T08:10:23;99953.19;;;18.28;62.63
20889;BME280;10604;51.976;7.594;2023-04-23T08:12:49;99948.50;;;18.19;62.60
20889;BME280;10604;51.976;7.594;2023-04-23T08:15:14;99943.28;;;18.42;63.45
20889;BME280;10604;51.976;7.594;2023-04-23T08:17:40;99948.16;;;18.48;61.19
20889;BME280;10604;51.976;7.594;2023-04-23T08:20:05;99940.84;;;18.62;61.21
20889;BME280;10604;51.976;7.594;2023-04-23T08:22:31;99938.69;;;18.67;60.88
20889;BME280;10604;51.976;7.594;2023-04-23T08:24:56;99938.22;;;18.73;61.06
20889;BME280;10604;51.976;7.594;2023-04-23T08:27:21;99935.69;;;18.94;61.06
20889;BME280;10604;51.976;7.594;2023-04-23T08:29:47;99935.47;;;19.08;60.91
20889;BME280;10604;51.976;7.594;2023-04-23T08:32:12;99930.63;;;19.13;59.88
20889;BME280;10604;51.976;7.594;2023-04-23T08:34:37;99938.13;;;18.86;60.10
20889;BME280;10604;51.976;7.594;2023-04-23T08:37:02;99924.66;;;19.43;60.56
20889;BME280;10604;51.976;7.594;2023-04-23T08:39:29;99924.03;;;19.06;60.40
20889;BME280;10604;51.976;7.594;2023-04-23T08:41:57;99933.72;;;18.74;61.06
20889;BME280;10604;51.976;7.594;2023-04-23T08:44:27;99925.53;;;19.55;59.42
20889;BME280;10604;51.976;7.594;2023-04-23T08:46:53;99923.50;;;20.02;58.11
20889;BME280;10604;51.976;7.594;2023-04-23T08:49:19;99921.06;;;20.42;56.89
20889;BME280;10604;51.976;7.594;2023-04-23T08:51:53;99916.22;;;21.19;55.75
20889;BME280;10604;51.976;7.594;2023-04-23T08:54:28;99924.59;;;21.04;54.75
20889;BME280;10604;51.976;7.594;2023-04-23T08:56:56;99927.00;;;21.28;53.09
20889;BME280;10604;51.976;7.594;2023-04-23T08:59:23;99920.69;;;21.79;53.83
20889;BME280;10604;51.976;7.594;2023-04-23T09:01:49;99920.19;;;22.04;51.35
20889;BME280;10604;51.976;7.594;2023-04-23T09:04:15;99926.13;;;21.98;50.98
20889;BME280;10604;51.976;7.594;2023-04-23T09:06:41;99927.72;;;22.30;49.36
20889;BME280;10604;51.976;7.594;2023-04-23T09:09:07;99920.50;;;22.59;49.19
20889;BME280;10604;51.976;7.594;2023-04-23T09:11:33;99916.41;;;22.55;49.22
20889;BME280;10604;51.976;7.594;2023-04-23T09:14:01;99912.50;;;21.90;48.65
20889;BME280;10604;51.976;7.594;2023-04-23T09:16:26;99909.41;;;21.35;51.35
20889;BME280;10604;51.976;7.594;2023-04-23T09:18:52;99907.06;;;21.21;51.83
20889;BME280;10604;51.976;7.594;2023-04-23T09:21:18;99902.50;;;21.42;51.37
20889;BME280;10604;51.976;7.594;2023-04-23T09:23:44;99908.63;;;22.42;50.16
20889;BME280;10604;51.976;7.594;2023-04-23T09:26:09;99904.94;;;22.53;50.42
20889;BME280;10604;51.976;7.594;2023-04-23T09:28:43;99901.16;;;21.67;49.88
20889;BME280;10604;51.976;7.594;2023-04-23T09:31:08;99898.88;;;21.63;49.79
20889;BME280;10604;51.976;7.594;2023-04-23T09:33:34;99893.03;;;21.88;50.96
20889;BME280;10604;51.976;7.594;2023-04-23T09:36:09;99890.53;;;21.16;49.48
20889;BME280;10604;51.976;7.594;2023-04-23T09:38:38;99888.41;;;21.20;50.41
20889;BME280;10604;51.976;7.594;2023-04-23T09:43:46;99887.97;;;22.04;47.22
20889;BME280;10604;51.976;7.594;2023-04-23T09:46:11;99882.03;;;22.30;48.23
20889;BME280;10604;51.976;7.594;2023-04-23T09:48:40;99880.63;;;22.45;47.80
20889;BME280;10604;51.976;7.594;2023-04-23T09:51:06;99876.56;;;21.53;48.67
20889;BME280;10604;51.976;7.594;2023-04-23T09:53:38;99884.41;;;21.35;48.79
20889;BME280;10604;51.976;7.594;2023-04-23T09:56:05;99886.91;;;21.67;50.08
20889;BME280;10604;51.976;7.594;2023-04-23T09:58:30;99877.47;;;20.60;52.07
20889;BME280;10604;51.976;7.594;2023-04-23T10:01:04;99878.72;;;20.56;51.63
20889;BME280;10604;51.976;7.594;2023-04-23T10:03:29;99880.50;;;20.97;52.22
20889;BME280;10604;51.976;7.594;2023-04-23T10:05:55;99872.25;;;21.40;49.93
20889;BME280;10604;51.976;7.594;2023-04-23T10:08:20;99874.56;;;21.55;49.28
20889;BME280;10604;51.976;7.594;2023-04-23T10:10:46;99875.16;;;21.68;49.74
20889;BME280;10604;51.976;7.594;2023-04-23T10:13:11;99870.25;;;22.59;46.81
20889;BME280;10604;51.976;7.594;2023-04-23T10:15:37;99869.25;;;21.74;48.40
20889;BME280;10604;51.976;7.594;2023-04-23T10:18:03;99868.41;;;23.53;46.77
20889;BME280;10604;51.976;7.594;2023-04-23T10:20:29;99867.97;;;24.82;43.02
20889;BME280;10604;51.976;7.594;2023-04-23T10:22:54;99867.56;;;26.37;41.84
20889;BME280;10604;51.976;7.594;2023-04-23T10:25:21;99865.19;;;26.91;38.52
20889;BME280;10604;51.976;7.594;2023-04-23T10:27:48;99859.41;;;27.02;39.20
20889;BME280;10604;51.976;7.594;2023-04-23T10:30:14;99865.53;;;26.55;38.88
20889;BME280;10604;51.976;7.594;2023-04-23T10:32:40;99870.19;;;25.96;38.35
20889;BME280;10604;51.976;7.594;2023-04-23T10:35:06;99866.41;;;24.97;40.18
20889;BME280;10604;51.976;7.594;2023-04-23T10:37:32;99864.56;;;24.80;39.87
20889;BME280;10604;51.976;7.594;2023-04-23T10:40:00;99861.19;;;25.38;38.95
20889;BME280;10604;51.976;7.594;2023-04-23T10:42:28;99847.97;;;25.18;39.19
20889;BME280;10604;51.976;7.594;2023-04-23T10:44:55;99846.25;;;25.17;38.61
20889;BME280;10604;51.976;7.594;2023-04-23T10:47:21;99860.09;;;26.23;38.84
20889;BME280;10604;51.976;7.594;2023-04-23T10:49:47;99853.31;;;26.02;37.24
20889;BME280;10604;51.976;7.594;2023-04-23T10:52:13;99840.56;;;24.94;40.02
20889;BME280;10604;51.976;7.594;2023-04-23T10:54:40;99857.81;;;24.14;41.41
20889;BME280;10604;51.976;7.594;2023-04-23T10:57:06;99847.34;;;22.55;42.41
20889;BME280;10604;51.976;7.594;2023-04-23T10:59:33;99838.53;;;22.82;43.15
20889;BME280;10604;51.976;7.594;2023-04-23T11:02:08;99837.00;;;22.80;42.11
20889;BME280;10604;51.976;7.594;2023-04-23T11:04:35;99833.63;;;23.87;42.27
20889;BME280;10604;51.976;7.594;2023-04-23T11:07:08;99838.44;;;24.54;40.19
20889;BME280;10604;51.976;7.594;2023-04-23T11:11:58;99821.31;;;23.02;41.33
20889;BME280;10604;51.976;7.594;2023-04-23T11:14:35;99822.31;;;22.55;44.21
20889;BME280;10604;51.976;7.594;2023-04-23T11:17:02;99825.69;;;22.57;44.64
20889;BME280;10604;51.976;7.594;2023-04-23T11:19:27;99827.47;;;22.00;44.94
20889;BME280;10604;51.976;7.594;2023-04-23T11:22:06;99831.44;;;22.15;44.58
20889;BME280;10604;51.976;7.594;2023-04-23T11:24:33;99823.47;;;21.85;44.13
20889;BME280;10604;51.976;7.594;2023-04-23T11:27:01;99806.50;;;22.33;43.58
20889;BME280;10604;51.976;7.594;2023-04-23T11:29:29;99806.88;;;23.03;42.96
20889;BME280;10604;51.976;7.594;2023-04-23T11:31:54;99809.91;;;23.18;42.18
20889;BME280;10604;51.976;7.594;2023-04-23T11:34:20;99806.75;;;22.39;42.15
20889;BME280;10604;51.976;7.594;2023-04-23T11:36:47;99813.53;;;22.53;42.55
20889;BME280;10604;51.976;7.594;2023-04-23T11:39:12;99807.66;;;23.68;41.61
20889;BME280;10604;51.976;7.594;2023-04-23T11:41:38;99795.50;;;24.35;39.78
20889;BME280;10604;51.976;7.594;2023-04-23T11:44:03;99790.53;;;24.48;40.04
20889;BME280;10604;51.976;7.594;2023-04-23T11:46:30;99784.59;;;24.71;39.89
20889;BME280;10604;51.976;7.594;2023-04-23T11:48:55;99791.75;;;25.14;39.10
20889;BME280;10604;51.976;7.594;2023-04-23T11:51:24;99790.75;;;25.73;37.98
20889;BME280;10604;51.976;7.594;2023-04-23T11:53:49;99792.69;;;25.47;37.12
20889;BME280;10604;51.976;7.594;2023-04-23T11:56:15;99780.78;;;25.15;37.89
20889;BME280;10604;51.976;7.594;2023-04-23T11:58:40;99776.28;;;24.90;37.85
20889;BME280;10604;51.976;7.594;2023-04-23T12:01:05;99779.00;;;24.90;38.34
20889;BME280;10604;51.976;7.594;2023-04-23T12:03:34;99776.56;;;24.27;38.48
20889;BME280;10604;51.976;7.594;2023-04-23T12:06:00;99777.56;;;24.26;38.65
20889;BME280;10604;51.976;7.594;2023-04-23T12:08:30;99772.06;;;23.47;38.21
20889;BME280;10604;51.976;7.594;2023-04-23T12:11:00;99773.78;;;23.48;38.14
20889;BME280;10604;51.976;7.594;2023-04-23T12:13:26;99773.19;;;23.54;38.69
20889;BME280;10604;51.976;7.594;2023-04-23T12:15:55;99773.50;;;23.51;38.88
20889;BME280;10604;51.976;7.594;2023-04-23T12:18:26;99761.34;;;23.83;39.20
20889;BME280;10604;51.976;7.594;2023-04-23T12:20:51;99751.44;;;23.38;39.72
20889;BME280;10604;51.976;7.594;2023-04-23T12:23:16;99752.19;;;24.19;39.69
20889;BME280;10604;51.976;7.594;2023-04-23T12:25:42;99745.03;;;24.53;38.44
20889;BME280;10604;51.976;7.594;2023-04-23T12:28:07;99753.78;;;24.81;38.85
20889;BME280;10604;51.976;7.594;2023-04-23T12:30:33;99743.53;;;24.85;37.58
20889;BME280;10604;51.976;7.594;2023-04-23T12:32:59;99746.38;;;24.06;37.71
20889;BME280;10604;51.976;7.594;2023-04-23T12:35:40;99740.38;;;24.38;37.84
20889;BME280;10604;51.976;7.594;2023-04-23T12:38:05;99747.25;;;24.32;38.40
20889;BME280;10604;51.976;7.594;2023-04-23T12:40:31;99743.53;;;23.90;36.93
20889;BME280;10604;51.976;7.594;2023-04-23T12:42:56;99739.91;;;23.99;37.86
20889;BME280;10604;51.976;7.594;2023-04-23T12:45:21;99730.56;;;24.29;38.27
20889;BME280;10604;51.976;7.594;2023-04-23T12:47:47;99725.97;;;24.47;37.04
20889;BME280;10604;51.976;7.594;2023-04-23T12:50:12;99729.47;;;23.60;37.38
20889;BME280;10604;51.976;7.594;2023-04-23T12:52:37;99721.66;;;23.39;38.20